createdAt,value
2019-03-30T00:05:01.683Z,1.70
2019-03-30T00:10:06.287Z,1.64
2019-03-30T00:15:10.859Z,1.55
2019-03-30T00:20:15.394Z,1.48
2019-03-30T00:25:20.001Z,1.44
2019-03-30T00:30:24.566Z,1.37
2019-03-30T00:35:29.161Z,1.33
2019-03-30T00:40:33.827Z,1.28
2019-03-30T00:45:38.409Z,1.16
2019-03-30T00:50:43.049Z,1.13
2019-03-30T00:55:47.537Z,1.20
2019-03-30T01:00:52.146Z,1.08
2019-03-30T01:05:58.335Z,1.01
2019-03-30T01:11:02.971Z,1.04
2019-03-30T01:16:07.574Z,0.95
2019-03-30T01:21:12.208Z,0.86
2019-03-30T01:26:16.770Z,0.88
2019-03-30T01:31:21.359Z,0.93
2019-03-30T01:36:25.949Z,0.88
2019-03-30T01:41:30.816Z,0.76
2019-03-30T01:46:35.403Z,0.72
2019-03-30T01:51:39.965Z,0.74
2019-03-30T01:56:44.538Z,0.68
2019-03-30T02:01:49.111Z,0.62
2019-03-30T02:06:53.704Z,0.65
2019-03-30T02:11:58.295Z,0.64
2019-03-30T02:17:02.880Z,0.66
2019-03-30T02:22:07.756Z,0.55
2019-03-30T02:27:12.390Z,0.48
2019-03-30T02:32:16.974Z,0.42
2019-03-30T02:37:21.553Z,0.39
2019-03-30T02:42:26.128Z,0.28
2019-03-30T02:47:30.672Z,0.28
2019-03-30T02:52:35.565Z,0.26
2019-03-30T02:57:40.132Z,0.23
2019-03-30T03:02:44.740Z,0.16
2019-03-30T03:07:49.478Z,0.16
2019-03-30T03:12:54.022Z,0.19
2019-03-30T03:17:58.619Z,0.16
2019-03-30T03:23:03.185Z,0.14
2019-03-30T03:28:07.779Z,0.06
2019-03-30T03:33:12.402Z,-0.05
2019-03-30T03:38:17.033Z,-0.15
2019-03-30T03:43:21.653Z,-0.22
2019-03-30T03:48:26.241Z,-0.23
2019-03-30T03:53:32.994Z,-0.31
2019-03-30T03:58:39.412Z,-0.33
2019-03-30T04:03:45.501Z,-0.41
2019-03-30T04:08:53.402Z,-0.41
2019-03-30T04:13:59.308Z,-0.51
2019-03-30T04:19:03.883Z,-0.53
2019-03-30T04:24:08.475Z,-0.62
2019-03-30T04:29:13.089Z,-0.60
2019-03-30T04:34:17.651Z,-0.49
2019-03-30T04:39:22.261Z,-0.47
2019-03-30T04:44:26.893Z,-0.51
2019-03-30T04:49:31.631Z,-0.60
2019-03-30T04:54:38.048Z,-0.57
2019-03-30T04:59:42.726Z,-0.56
2019-03-30T05:04:47.328Z,-0.48
2019-03-30T05:09:51.900Z,-0.37
2019-03-30T05:14:56.584Z,-0.25
2019-03-30T05:20:01.200Z,-0.11
2019-03-30T05:25:05.846Z,0.13
2019-03-30T05:30:10.648Z,0.37
2019-03-30T05:35:15.233Z,0.68
2019-03-30T05:40:19.801Z,0.88
2019-03-30T05:45:24.634Z,1.12
2019-03-30T05:50:29.236Z,1.54
2019-03-30T05:55:33.872Z,1.90
2019-03-30T06:00:38.477Z,2.24
2019-03-30T06:05:43.405Z,3.19
2019-03-30T06:10:48.555Z,4.46
2019-03-30T06:15:53.313Z,4.21
2019-03-30T06:20:57.986Z,4.10
2019-03-30T06:26:02.868Z,3.89
2019-03-30T06:31:07.427Z,4.20
2019-03-30T06:36:11.989Z,4.54
2019-03-30T06:41:16.595Z,4.84
2019-03-30T06:46:21.197Z,5.10
2019-03-30T06:51:25.744Z,5.16
2019-03-30T06:56:30.303Z,5.25
2019-03-30T07:01:35.187Z,5.39
2019-03-30T07:06:40.332Z,5.66
2019-03-30T07:11:46.555Z,5.93
2019-03-30T07:16:53.831Z,6.10
2019-03-30T07:21:58.487Z,6.35
2019-03-30T07:27:05.250Z,6.66
2019-03-30T07:32:09.847Z,6.99
2019-03-30T07:37:14.441Z,7.18
2019-03-30T07:42:19.004Z,7.45
2019-03-30T07:47:23.965Z,7.73
2019-03-30T07:52:28.545Z,7.99
2019-03-30T07:57:33.430Z,8.29
2019-03-30T08:02:38.142Z,8.63
2019-03-30T08:07:43.083Z,8.97
2019-03-30T08:12:47.654Z,9.28
2019-03-30T08:17:52.251Z,9.61
2019-03-30T08:22:56.835Z,10.13
2019-03-30T08:28:01.428Z,10.43
2019-03-30T08:33:06.291Z,10.64
2019-03-30T08:38:10.877Z,11.01
2019-03-30T08:43:15.511Z,11.39
2019-03-30T08:48:20.100Z,11.76
2019-03-30T08:53:25.244Z,11.80
2019-03-30T08:58:29.882Z,12.08
2019-03-30T09:03:34.449Z,12.29
2019-03-30T09:08:39.366Z,12.52
2019-03-30T09:13:43.947Z,12.78
2019-03-30T09:18:48.610Z,12.84
2019-03-30T09:23:53.236Z,13.11
2019-03-30T09:28:58.266Z,13.47
2019-03-30T09:34:03.190Z,13.84
2019-03-30T09:39:09.026Z,14.29
2019-03-30T09:44:13.615Z,16.81
2019-03-30T09:49:18.187Z,19.71
2019-03-30T09:54:23.922Z,20.91
2019-03-30T09:59:29.496Z,20.90
2019-03-30T10:04:34.592Z,20.67
2019-03-30T10:09:39.284Z,20.66
2019-03-30T10:14:43.874Z,20.09
2019-03-30T10:20:03.606Z,20.38
2019-03-30T10:24:58.172Z,20.08
2019-03-30T10:30:01.076Z,20.81
2019-03-30T10:35:06.247Z,21.55
2019-03-30T10:40:10.957Z,22.31
2019-03-30T10:45:15.542Z,21.90
2019-03-30T10:50:20.150Z,22.94
2019-03-30T10:55:24.782Z,22.86
2019-03-30T11:00:37.482Z,22.74
2019-03-30T11:05:42.162Z,22.25
2019-03-30T11:10:47.084Z,21.85
2019-03-30T11:15:51.652Z,22.22
2019-03-30T11:20:56.256Z,21.64
2019-03-30T11:26:01.196Z,21.46
2019-03-30T11:31:06.305Z,21.30
2019-03-30T11:36:10.911Z,21.03
2019-03-30T11:41:15.502Z,20.54
2019-03-30T11:46:20.106Z,20.32
2019-03-30T11:51:25.095Z,21.01
2019-03-30T11:56:29.646Z,21.10
2019-03-30T12:01:34.245Z,20.58
2019-03-30T12:06:38.849Z,20.63
2019-03-30T12:11:43.412Z,20.71
2019-03-30T12:16:48.038Z,20.66
2019-03-30T12:21:52.698Z,20.38
2019-03-30T12:26:57.285Z,20.16
2019-03-30T12:32:01.878Z,20.39
2019-03-30T12:37:06.465Z,20.52
2019-03-30T12:42:11.049Z,20.51
2019-03-30T12:47:15.663Z,20.58
2019-03-30T12:52:20.265Z,20.64
2019-03-30T12:57:25.029Z,20.82
2019-03-30T13:02:29.686Z,20.48
2019-03-30T13:07:52.201Z,20.74
2019-03-30T13:13:14.539Z,21.04
2019-03-30T13:18:19.111Z,20.55
2019-03-30T13:23:23.713Z,20.78
2019-03-30T13:28:30.270Z,20.45
2019-03-30T13:33:37.820Z,20.26
2019-03-30T13:38:42.454Z,20.39
2019-03-30T13:43:46.988Z,20.15
2019-03-30T13:48:51.895Z,20.47
2019-03-30T13:53:56.510Z,20.22
2019-03-30T13:59:01.121Z,20.39
2019-03-30T14:04:05.724Z,20.74
2019-03-30T14:09:10.330Z,20.80
2019-03-30T14:14:15.196Z,20.93
2019-03-30T14:19:19.743Z,20.69
2019-03-30T14:24:24.300Z,21.00
2019-03-30T14:29:28.888Z,20.94
2019-03-30T14:34:33.488Z,20.92
2019-03-30T14:39:38.020Z,20.93
2019-03-30T14:44:42.615Z,20.83
2019-03-30T14:49:47.276Z,20.64
2019-03-30T14:54:53.242Z,20.20
2019-03-30T14:59:57.961Z,20.62
2019-03-30T15:05:02.561Z,20.43
2019-03-30T15:10:08.213Z,20.83
2019-03-30T15:15:13.206Z,20.83
2019-03-30T15:20:17.880Z,21.06
2019-03-30T15:25:22.805Z,20.59
2019-03-30T15:30:27.706Z,20.37
2019-03-30T15:35:32.627Z,20.67
2019-03-30T15:40:37.343Z,20.49
2019-03-30T15:45:41.919Z,20.39
2019-03-30T15:50:46.604Z,20.19
2019-03-30T15:55:51.469Z,20.20
2019-03-30T16:01:07.904Z,20.03
2019-03-30T16:06:12.509Z,19.85
2019-03-30T16:11:17.461Z,19.64
2019-03-30T16:16:22.138Z,19.29
2019-03-30T16:21:26.749Z,18.99
2019-03-30T16:26:49.203Z,18.77
2019-03-30T16:31:54.101Z,18.48
2019-03-30T16:36:58.702Z,18.15
2019-03-30T16:42:03.326Z,17.75
2019-03-30T16:47:07.935Z,17.42
2019-03-30T16:52:30.556Z,16.90
2019-03-30T16:57:53.105Z,16.61
2019-03-30T17:02:57.734Z,16.58
2019-03-30T17:08:02.892Z,16.23
2019-03-30T17:13:07.613Z,15.63
2019-03-30T17:18:12.253Z,15.21
2019-03-30T17:23:16.938Z,14.98
2019-03-30T17:28:21.513Z,14.75
2019-03-30T17:33:26.109Z,14.40
2019-03-30T17:38:30.718Z,13.94
2019-03-30T17:43:35.327Z,13.45
2019-03-30T17:48:40.095Z,13.03
2019-03-30T17:53:44.596Z,12.70
2019-03-30T17:58:49.151Z,12.32
2019-03-30T18:03:54.001Z,12.03
2019-03-30T18:08:58.575Z,11.77
2019-03-30T18:14:03.185Z,11.55
2019-03-30T18:19:07.767Z,11.30
2019-03-30T18:24:12.380Z,11.07
2019-03-30T18:29:17.714Z,10.81
2019-03-30T18:34:22.307Z,10.65
2019-03-30T18:39:26.879Z,10.54
2019-03-30T18:44:31.726Z,10.35
2019-03-30T18:49:36.358Z,10.13
2019-03-30T18:54:49.677Z,9.95
2019-03-30T18:59:54.853Z,9.83
2019-03-30T19:05:01.001Z,9.70
2019-03-30T19:10:05.783Z,9.50
2019-03-30T19:15:10.520Z,9.34
2019-03-30T19:20:15.256Z,9.11
2019-03-30T19:25:19.858Z,8.94
2019-03-30T19:30:24.660Z,8.81
2019-03-30T19:35:30.436Z,8.72
2019-03-30T19:40:37.107Z,8.71
2019-03-30T19:45:44.191Z,8.66
2019-03-30T19:50:50.146Z,8.54
2019-03-30T19:55:54.959Z,8.40
2019-03-30T20:00:59.679Z,8.34
2019-03-30T20:06:05.181Z,8.28
2019-03-30T20:11:11.754Z,8.23
2019-03-30T20:16:16.515Z,8.19
2019-03-30T20:21:22.807Z,8.22
2019-03-30T20:26:27.615Z,8.01
2019-03-30T20:31:32.571Z,8.01
2019-03-30T20:36:38.178Z,7.86
2019-03-30T20:41:43.799Z,7.69
2019-03-30T20:46:50.567Z,7.69
2019-03-30T20:51:57.037Z,7.63
2019-03-30T20:57:04.189Z,7.42
2019-03-30T21:02:08.872Z,7.43
2019-03-30T21:07:14.094Z,7.34
2019-03-30T21:12:21.767Z,7.17
2019-03-30T21:17:26.517Z,6.99
2019-03-30T21:22:31.083Z,6.89
2019-03-30T21:27:36.036Z,6.80
2019-03-30T21:32:41.094Z,6.71
2019-03-30T21:37:46.123Z,6.74
2019-03-30T21:42:51.526Z,6.69
2019-03-30T21:47:56.813Z,6.66
2019-03-30T21:53:01.722Z,6.68
2019-03-30T21:58:06.247Z,6.75
2019-03-30T22:03:10.959Z,6.71
2019-03-30T22:08:17.323Z,6.48
2019-03-30T22:13:21.975Z,6.38
2019-03-30T22:18:26.637Z,6.28
2019-03-30T22:23:31.214Z,6.23
2019-03-30T22:28:35.825Z,6.09
2019-03-30T22:33:40.430Z,5.90
2019-03-30T22:38:45.279Z,5.77
2019-03-30T22:43:49.839Z,5.70
2019-03-30T22:48:54.476Z,5.57
2019-03-30T22:53:59.077Z,5.43
2019-03-30T22:59:03.616Z,5.38
2019-03-30T23:04:08.176Z,5.37
2019-03-30T23:09:12.750Z,5.27
2019-03-30T23:14:17.344Z,5.29
2019-03-30T23:19:21.958Z,5.21
2019-03-30T23:24:26.556Z,5.13
2019-03-30T23:29:31.175Z,4.97
2019-03-30T23:34:35.738Z,4.89
2019-03-30T23:39:40.317Z,4.77
2019-03-30T23:44:44.882Z,4.71
2019-03-30T23:49:49.469Z,4.68
2019-03-30T23:54:54.102Z,4.68
2019-03-30T23:59:58.719Z,4.63
